createdAt,value
2023-02-11T00:03:53.932Z,22.50
2023-02-11T00:08:57.029Z,23.10
2023-02-11T00:14:02.262Z,22.33
2023-02-11T00:19:06.698Z,23.03
2023-02-11T00:24:09.127Z,23.67
2023-02-11T00:29:11.563Z,23.23
2023-02-11T00:34:16.121Z,24.33
2023-02-11T00:39:18.977Z,21.60
2023-02-11T00:44:21.495Z,22.30
2023-02-11T00:49:25.331Z,23.37
2023-02-11T00:54:29.956Z,23.50
2023-02-11T00:59:32.554Z,23.53
2023-02-11T01:04:37.024Z,24.03
2023-02-11T01:09:39.387Z,22.80
2023-02-11T01:14:42.109Z,23.43
2023-02-11T01:19:44.637Z,45.67
2023-02-11T01:24:47.041Z,24.13
2023-02-11T01:29:49.384Z,23.10
2023-02-11T01:34:51.795Z,27.13
2023-02-11T01:39:54.581Z,26.57
2023-02-11T01:44:57.916Z,27.50
2023-02-11T01:50:02.151Z,25.67
2023-02-11T01:55:27.115Z,24.23
2023-02-11T02:00:40.411Z,23.17
2023-02-11T02:05:45.776Z,26.00
2023-02-11T02:10:54.665Z,24.57
2023-02-11T02:16:00.004Z,23.63
2023-02-11T02:21:29.657Z,23.60
2023-02-11T02:27:09.563Z,24.40
2023-02-11T02:32:30.550Z,25.57
2023-02-11T02:37:51.854Z,24.37
2023-02-11T02:42:56.292Z,25.53
2023-02-11T02:47:58.892Z,25.43
2023-02-11T02:53:24.536Z,24.17
2023-02-11T02:58:52.519Z,25.87
2023-02-11T03:04:27.767Z,25.37
2023-02-11T03:09:56.495Z,24.67
2023-02-11T03:15:01.404Z,26.03
2023-02-11T03:20:06.377Z,26.27
2023-02-11T03:25:09.657Z,24.93
2023-02-11T03:30:26.396Z,25.73
2023-02-11T03:36:07.744Z,24.27
2023-02-11T03:41:11.322Z,24.47
2023-02-11T03:46:18.190Z,24.67
2023-02-11T03:51:22.455Z,25.13
2023-02-11T03:56:29.133Z,25.70
2023-02-11T04:01:31.558Z,26.77
2023-02-11T04:06:34.110Z,27.07
2023-02-11T04:11:36.645Z,27.37
2023-02-11T04:16:39.126Z,26.33
2023-02-11T04:21:41.545Z,26.00
2023-02-11T04:26:43.911Z,27.90
2023-02-11T04:31:46.932Z,29.77
2023-02-11T04:36:49.505Z,29.80
2023-02-11T04:41:51.938Z,30.90
2023-02-11T04:46:54.895Z,28.63
2023-02-11T04:51:57.277Z,30.20
2023-02-11T04:56:59.731Z,30.97
2023-02-11T05:02:02.294Z,30.20
2023-02-11T05:07:04.709Z,29.30
2023-02-11T05:12:07.249Z,28.03
2023-02-11T05:17:09.633Z,30.63
2023-02-11T05:22:12.104Z,33.30
2023-02-11T05:27:14.545Z,35.50
2023-02-11T05:32:17.172Z,30.13
2023-02-11T05:37:19.720Z,29.77
2023-02-11T05:42:22.199Z,30.60
2023-02-11T05:47:24.996Z,31.43
2023-02-11T05:52:27.523Z,31.00
2023-02-11T05:57:29.945Z,32.17
2023-02-11T06:02:32.414Z,31.43
2023-02-11T06:07:34.814Z,36.10
2023-02-11T06:12:37.903Z,33.67
2023-02-11T06:17:40.396Z,33.20
2023-02-11T06:22:42.902Z,32.97
2023-02-11T06:27:45.402Z,32.37
2023-02-11T06:32:48.069Z,34.73
2023-02-11T06:37:50.607Z,35.27
2023-02-11T06:42:53.337Z,34.83
2023-02-11T06:47:56.236Z,36.07
2023-02-11T06:53:02.033Z,37.43
2023-02-11T06:58:04.619Z,38.23
2023-02-11T07:03:06.956Z,36.47
2023-02-11T07:08:09.478Z,37.90
2023-02-11T07:13:11.825Z,36.47
2023-02-11T07:18:14.857Z,37.40
2023-02-11T07:23:17.394Z,38.53
2023-02-11T07:28:20.030Z,39.40
2023-02-11T07:33:22.435Z,50.23
2023-02-11T07:38:24.853Z,51.80
2023-02-11T07:43:27.878Z,60.47
2023-02-11T07:48:30.681Z,75.03
2023-02-11T07:53:33.125Z,52.70
2023-02-11T07:58:35.891Z,44.97
2023-02-11T08:03:39.485Z,39.80
2023-02-11T08:08:42.283Z,74.20
2023-02-11T08:13:45.302Z,161.63
2023-02-11T08:18:48.339Z,47.87
2023-02-11T08:23:50.874Z,37.27
2023-02-11T08:28:56.505Z,37.43
2023-02-11T08:33:59.150Z,38.40
2023-02-11T08:39:18.090Z,37.90
2023-02-11T08:44:22.708Z,76.73
2023-02-11T08:49:25.267Z,49.97
2023-02-11T08:54:27.813Z,42.37
2023-02-11T08:59:30.792Z,48.00
2023-02-11T09:04:33.189Z,43.83
2023-02-11T09:09:35.673Z,38.90
2023-02-11T09:14:38.613Z,40.27
2023-02-11T09:19:41.101Z,53.27
2023-02-11T09:24:43.557Z,38.90
2023-02-11T09:29:45.938Z,40.57
2023-02-11T09:34:48.423Z,42.03
2023-02-11T09:39:50.894Z,39.67
2023-02-11T09:44:53.750Z,39.63
2023-02-11T09:50:04.673Z,154.87
2023-02-11T09:55:18.754Z,115.57
2023-02-11T10:00:23.065Z,72.97
2023-02-11T10:05:41.550Z,50.57
2023-02-11T10:10:59.200Z,55.40
2023-02-11T10:16:28.093Z,43.43
2023-02-11T10:21:46.670Z,39.20
2023-02-11T10:26:49.651Z,49.80
2023-02-11T10:31:54.189Z,37.80
2023-02-11T10:36:57.723Z,56.77
2023-02-11T10:42:05.149Z,139.47
2023-02-11T10:47:27.156Z,42.07
2023-02-11T10:52:30.957Z,41.27
2023-02-11T10:57:44.531Z,41.20
2023-02-11T11:02:54.292Z,38.70
2023-02-11T11:08:00.129Z,39.50
2023-02-11T11:13:03.365Z,36.57
2023-02-11T11:18:22.322Z,215.93
2023-02-11T11:23:26.064Z,133.20
2023-02-11T11:28:31.480Z,54.07
2023-02-11T11:33:36.536Z,65.57
2023-02-11T11:38:55.715Z,46.50
2023-02-11T11:44:04.697Z,37.77
2023-02-11T11:49:31.000Z,36.17
2023-02-11T11:54:35.055Z,36.07
2023-02-11T11:59:38.302Z,51.47
2023-02-11T12:04:55.200Z,40.47
2023-02-11T12:09:57.632Z,53.00
2023-02-11T12:15:33.247Z,66.33
2023-02-11T12:21:03.109Z,51.33
2023-02-11T12:26:19.623Z,52.43
2023-02-11T12:31:22.218Z,39.43
2023-02-11T12:36:57.145Z,36.13
2023-02-11T12:42:36.496Z,52.07
2023-02-11T12:48:02.105Z,42.50
2023-02-11T12:53:30.872Z,40.60
2023-02-11T12:58:44.980Z,38.70
2023-02-11T13:04:00.064Z,45.00
2023-02-11T13:09:05.927Z,40.00
2023-02-11T13:14:30.750Z,46.70
2023-02-11T13:19:35.158Z,48.07
2023-02-11T13:25:06.214Z,41.43
2023-02-11T13:30:32.428Z,38.67
2023-02-11T13:35:41.150Z,37.80
2023-02-11T13:40:44.385Z,45.03
2023-02-11T13:45:48.972Z,39.07
2023-02-11T13:50:55.747Z,35.20
2023-02-11T13:56:12.133Z,45.53
2023-02-11T14:01:40.908Z,62.37
2023-02-11T14:08:00.273Z,69.97
2023-02-11T14:13:27.066Z,66.83
2023-02-11T14:18:44.388Z,151.43
2023-02-11T14:23:47.202Z,128.70
2023-02-11T14:29:14.138Z,86.73
2023-02-11T14:34:29.913Z,85.00
2023-02-11T14:39:37.934Z,69.90
2023-02-11T14:44:41.625Z,50.63
2023-02-11T14:49:45.097Z,47.47
2023-02-11T14:54:50.865Z,60.10
2023-02-11T14:59:59.241Z,93.30
2023-02-11T15:05:17.550Z,74.77
2023-02-11T15:10:41.813Z,76.60
2023-02-11T15:15:46.735Z,108.17
2023-02-11T15:20:50.628Z,82.00
2023-02-11T15:25:56.058Z,57.00
2023-02-11T15:30:58.569Z,65.53
2023-02-11T15:36:02.427Z,68.47
2023-02-11T15:41:07.569Z,52.37
2023-02-11T15:46:13.235Z,41.30
2023-02-11T15:51:36.441Z,62.23
2023-02-11T15:56:51.089Z,50.73
2023-02-11T16:01:54.795Z,55.37
2023-02-11T16:06:57.817Z,49.47
2023-02-11T16:12:21.160Z,44.63
2023-02-11T16:17:27.492Z,94.57
2023-02-11T16:22:35.437Z,181.00
2023-02-11T16:27:42.001Z,86.50
2023-02-11T16:32:44.403Z,122.30
2023-02-11T16:37:46.826Z,54.50
2023-02-11T16:42:49.716Z,90.87
2023-02-11T16:47:52.464Z,42.93
2023-02-11T16:52:55.206Z,49.03
2023-02-11T16:57:57.738Z,39.23
2023-02-11T17:03:00.156Z,44.30
2023-02-11T17:08:04.137Z,56.20
2023-02-11T17:13:06.759Z,59.60
2023-02-11T17:18:12.919Z,123.50
2023-02-11T17:23:15.574Z,112.57
2023-02-11T17:28:18.054Z,75.83
2023-02-11T17:33:20.615Z,37.87
2023-02-11T17:38:22.984Z,62.60
2023-02-11T17:43:25.506Z,56.30
2023-02-11T17:48:51.737Z,198.50
2023-02-11T17:53:54.517Z,106.73
2023-02-11T17:58:56.964Z,161.23
2023-02-11T18:03:59.830Z,151.90
2023-02-11T18:09:04.606Z,56.23
2023-02-11T18:14:08.532Z,165.83
2023-02-11T18:19:11.862Z,47.73
2023-02-11T18:24:14.593Z,45.90
2023-02-11T18:29:17.055Z,45.47
2023-02-11T18:34:19.511Z,47.90
2023-02-11T18:39:24.313Z,40.80
2023-02-11T18:44:27.603Z,25.53
2023-02-11T18:49:30.045Z,66.70
2023-02-11T18:54:32.481Z,230.17
2023-02-11T18:59:35.077Z,287.13
2023-02-11T19:04:37.569Z,122.37
2023-02-11T19:09:40.394Z,29.00
2023-02-11T19:14:42.822Z,40.93
2023-02-11T19:19:45.229Z,77.60
2023-02-11T19:24:47.686Z,48.90
2023-02-11T19:29:50.124Z,20.47
2023-02-11T19:34:53.207Z,18.90
2023-02-11T19:39:55.697Z,16.73
2023-02-11T19:44:58.123Z,25.43
2023-02-11T19:50:00.495Z,47.03
2023-02-11T19:55:02.900Z,35.97
2023-02-11T20:00:06.164Z,31.77
2023-02-11T20:05:14.180Z,47.37
2023-02-11T20:10:17.059Z,37.97
2023-02-11T20:15:19.486Z,22.13
2023-02-11T20:20:21.953Z,26.27
2023-02-11T20:25:24.584Z,34.63
2023-02-11T20:30:26.967Z,57.37
2023-02-11T20:35:29.348Z,27.73
2023-02-11T20:40:33.092Z,15.30
2023-02-11T20:45:35.684Z,15.63
2023-02-11T20:50:38.524Z,15.87
2023-02-11T20:55:40.936Z,12.30
2023-02-11T21:00:43.354Z,11.53
2023-02-11T21:05:45.723Z,12.60
2023-02-11T21:10:48.852Z,15.40
2023-02-11T21:15:58.497Z,11.77
2023-02-11T21:21:01.326Z,11.00
2023-02-11T21:26:03.815Z,11.77
2023-02-11T21:31:06.755Z,10.93
2023-02-11T21:36:10.607Z,12.50
2023-02-11T21:41:13.154Z,11.60
2023-02-11T21:46:17.543Z,12.07
2023-02-11T21:51:25.122Z,12.43
2023-02-11T21:56:29.664Z,12.67
2023-02-11T22:01:35.584Z,11.67
2023-02-11T22:06:38.842Z,12.67
2023-02-11T22:11:41.242Z,12.97
2023-02-11T22:16:45.874Z,12.50
2023-02-11T22:21:48.378Z,13.33
2023-02-11T22:26:50.843Z,12.17
2023-02-11T22:31:53.320Z,12.17
2023-02-11T22:36:55.717Z,12.03
2023-02-11T22:41:58.215Z,11.70
2023-02-11T22:47:00.611Z,11.10
2023-02-11T22:52:03.623Z,11.27
2023-02-11T22:57:06.036Z,13.87
2023-02-11T23:02:08.540Z,12.53
2023-02-11T23:07:11.125Z,12.23
2023-02-11T23:12:13.838Z,12.10
2023-02-11T23:17:16.457Z,12.17
2023-02-11T23:22:18.809Z,11.17
2023-02-11T23:27:21.225Z,11.73
2023-02-11T23:32:23.916Z,10.23
2023-02-11T23:37:26.327Z,11.13
2023-02-11T23:42:29.248Z,10.57
2023-02-11T23:47:31.663Z,10.33
2023-02-11T23:52:34.114Z,10.17
2023-02-11T23:57:37.324Z,11.37
